Aviation Digital Data Service (ADDS)

Output produced by METARs form (0848 UTC 24 March 2019)
found at http://www.aviationweather.gov/metar/data/
 
Forecast for: PTSA (KOSRAE ISLAND , FM)
Text: PTSA 240526Z 2406/2506 12011KT P6SM VCSH BKN020 BKN130
Forecast period: 0600 UTC 24 March 2019 to 0600 UTC 25 March 2019
Forecast type: FROM: standard forecast or significant change
Winds: from the ESE (120 degrees) at 13 MPH (11 knots; 5.7 m/s)
Visibility: 6 or more miles 10+ km)
Ceiling: 2000 feet AGL
Clouds: broken clouds at 2000 feet AGL
broken clouds at 13000 feet AGL
Weather: VCSH  (showers in vicinity)